Kulpsville, PA (19443)

5:44 AM EDT on March 30, 2015 (GMT -0400)
Store Road | | Change Station
CLOSE
Current Station
Personal Weather Station
Location: Harleysville, PA
Elevation: 253 ft
Nearby Weather Stations

Elev 253 ft 40.24 °N, 75.37 °W | Updated 24 seconds ago

Overcast
Overcast
36.3 °F
Feels Like 30 °F
N
8.1
Wind Variable Wind from South
Gusts 8.1 mph

Today
High -- | Low -- °F
--% Chance of Precip.
Yesterday
High -- | Low -- °F
Precip. -- in
6:48 AM 7:23 PM
Waxing Gibbous, 78% visible
Pressure 29.96 in
Visibility 10.0 miles
Clouds Clear
Windchill 30 °F
Dew Point 27 °F
Humidity 70%
Rainfall 0.00 in
Snow Depth Not available.
UV 0 out of 12
Pollen 8.40 out of 12
Air Quality Not available.
Flu Activity Not available.
METAR KLOM 300935Z AUTO 19007KT 10SM CLR 02/M02 A2996 RMK AO1

More Conditions Fewer Conditions

Pressure 29.96 in
Visibility 10.0 miles
Clouds Clear
Windchill 30 °F
Dew Point 27 °F
Humidity 70%
Rainfall 0.00 in
Snow Depth Not available.
UV 0 out of 12
Pollen 8.40 out of 12
Air Quality Not available.
Flu Activity Not available.
METAR KLOM 300935Z AUTO 19007KT 10SM CLR 02/M02 A2996 RMK AO1

More Conditions Fewer Conditions

Nowcast | as of 5:00 am EDT on March 30, 2015

Between now and 7 am some spotty light snow or flurries will be moving through the region. Temperatures remain above freezing and paved surfaces should remain wet.

×

10-Day Weather Forecast

Almanac

Astronomy

Mar. 30, 2015 Rise Set
Actual Time
Civil Twilight
Nautical Twilight
Astronomical Twilight
Moon
Length of Visible Light
Length of Day
Tomorrow will be .
, % of the Moon is Illuminated

Today's Extremes

State Highs State Lows

Community

WunderPhotos

Upload Photos

1,809,451 photos uploaded!

WunderBlogs® & News

Nearby

Air Quality

  Air Quality AQ Index Pollutant
Not available.

Snow Depth

Station Depth Elevation

Earthquake Activity

City Distance Mag. Time & Date
Minimum magnitude displayed is 2.5.

Coastal Water Temperatures

Place Temperature

Stations

Nearby Weather Stations

Station Location Temp. Windchill Dew Point Humidity Wind Precip. Elev Updated Type